createdAt,value
2018-10-18T00:00:57.404Z,93.10
2018-10-18T00:03:26.040Z,93.20
2018-10-18T00:05:54.529Z,93.10
2018-10-18T00:08:23.114Z,93.20
2018-10-18T00:10:51.840Z,92.90
2018-10-18T00:13:20.408Z,93.10
2018-10-18T00:15:49.139Z,93.30
2018-10-18T00:18:17.815Z,93.10
2018-10-18T00:20:46.290Z,93.40
2018-10-18T00:23:14.821Z,93.10
2018-10-18T00:25:43.358Z,93.20
2018-10-18T00:28:12.495Z,93.20
2018-10-18T00:30:44.035Z,93.60
2018-10-18T00:33:12.593Z,93.70
2018-10-18T00:35:41.070Z,93.60
2018-10-18T00:38:09.667Z,93.70
2018-10-18T00:40:38.161Z,93.60
2018-10-18T00:43:06.722Z,93.60
2018-10-18T00:45:35.199Z,93.70
2018-10-18T00:48:03.864Z,93.90
2018-10-18T00:50:32.279Z,93.70
2018-10-18T00:53:00.837Z,93.60
2018-10-18T00:55:29.341Z,93.60
2018-10-18T00:57:57.904Z,93.70
2018-10-18T01:00:26.620Z,93.70
2018-10-18T01:02:55.130Z,94.30
2018-10-18T01:05:23.686Z,94.50
2018-10-18T01:07:52.406Z,93.90
2018-10-18T01:10:21.774Z,93.90
2018-10-18T01:12:50.412Z,93.70
2018-10-18T01:15:19.040Z,94.00
2018-10-18T01:17:47.605Z,94.30
2018-10-18T01:20:16.221Z,94.20
2018-10-18T01:22:44.803Z,95.10
2018-10-18T01:25:13.326Z,94.70
2018-10-18T01:27:42.562Z,95.10
2018-10-18T01:30:12.337Z,95.40
2018-10-18T01:32:40.826Z,95.00
2018-10-18T01:35:09.380Z,94.40
2018-10-18T01:37:37.887Z,94.00
2018-10-18T01:40:06.499Z,94.00
2018-10-18T01:42:35.118Z,94.00
2018-10-18T01:45:03.733Z,94.20
2018-10-18T01:47:32.282Z,93.90
2018-10-18T01:50:00.895Z,93.80
2018-10-18T01:52:29.476Z,94.10
2018-10-18T01:54:58.006Z,94.30
2018-10-18T01:57:26.561Z,94.30
2018-10-18T01:59:55.146Z,95.20
2018-10-18T02:02:23.750Z,95.20
2018-10-18T02:04:52.477Z,94.40
2018-10-18T02:07:20.979Z,94.10
2018-10-18T02:09:50.453Z,94.20
2018-10-18T02:12:19.013Z,94.20
2018-10-18T02:14:47.514Z,94.30
2018-10-18T02:17:16.004Z,94.30
2018-10-18T02:19:44.558Z,94.90
2018-10-18T02:22:13.069Z,95.20
2018-10-18T02:24:41.549Z,95.60
2018-10-18T02:27:10.109Z,95.50
2018-10-18T02:29:38.649Z,94.90
2018-10-18T02:32:07.157Z,95.00
2018-10-18T02:34:35.719Z,94.40
2018-10-18T02:37:04.645Z,94.50
2018-10-18T02:39:33.193Z,94.70
2018-10-18T02:42:01.725Z,94.90
2018-10-18T02:44:30.275Z,94.50
2018-10-18T02:46:58.811Z,94.50
2018-10-18T02:49:27.431Z,94.40
2018-10-18T02:51:56.100Z,94.80
2018-10-18T02:54:24.601Z,95.50
2018-10-18T02:56:53.188Z,95.70
2018-10-18T02:59:21.673Z,95.10
2018-10-18T03:01:50.177Z,94.80
2018-10-18T03:04:18.732Z,94.70
2018-10-18T03:06:47.372Z,94.70
2018-10-18T03:09:15.938Z,95.00
2018-10-18T03:11:45.113Z,94.80
2018-10-18T03:14:13.707Z,95.10
2018-10-18T03:16:42.352Z,95.70
2018-10-18T03:19:10.850Z,96.20
2018-10-18T03:21:39.333Z,96.40
2018-10-18T03:24:07.898Z,95.60
2018-10-18T03:26:36.423Z,95.50
2018-10-18T03:29:04.882Z,95.70
2018-10-18T03:31:33.359Z,96.10
2018-10-18T03:34:01.944Z,96.40
2018-10-18T03:36:30.444Z,96.20
2018-10-18T03:38:58.877Z,96.10
2018-10-18T03:41:27.399Z,95.50
2018-10-18T03:43:55.828Z,95.40
2018-10-18T03:46:24.455Z,95.40
2018-10-18T03:48:53.000Z,95.30
2018-10-18T03:51:21.557Z,95.40
2018-10-18T03:53:50.182Z,95.20
2018-10-18T03:56:18.661Z,95.40
2018-10-18T03:58:47.145Z,95.30
2018-10-18T04:01:15.689Z,95.50
2018-10-18T04:03:44.221Z,95.40
2018-10-18T04:06:13.359Z,95.60
2018-10-18T04:08:41.849Z,96.40
2018-10-18T04:11:10.358Z,96.40
2018-10-18T04:13:39.082Z,96.50
2018-10-18T04:16:07.874Z,96.40
2018-10-18T04:18:36.451Z,97.00
2018-10-18T04:21:05.048Z,97.00
2018-10-18T04:23:34.664Z,96.70
2018-10-18T04:26:04.101Z,97.10
2018-10-18T04:28:33.564Z,97.30
2018-10-18T04:31:03.037Z,97.00
2018-10-18T04:33:31.780Z,97.00
2018-10-18T04:36:00.299Z,97.00
2018-10-18T04:38:28.765Z,96.90
2018-10-18T04:40:57.306Z,97.10
2018-10-18T04:43:25.837Z,96.40
2018-10-18T04:45:54.438Z,96.90
2018-10-18T04:48:23.028Z,96.90
2018-10-18T04:50:51.548Z,97.10
2018-10-18T04:53:20.034Z,97.60
2018-10-18T04:55:48.615Z,97.60
2018-10-18T04:58:17.120Z,97.60
2018-10-18T05:00:45.725Z,97.60
2018-10-18T05:03:14.304Z,97.60
2018-10-18T05:05:51.841Z,97.90
2018-10-18T05:08:21.573Z,97.70
2018-10-18T05:10:50.203Z,97.60
2018-10-18T05:13:19.029Z,97.60
2018-10-18T05:15:47.560Z,97.60
2018-10-18T05:18:16.388Z,97.60
2018-10-18T05:20:45.097Z,97.70
2018-10-18T05:23:13.714Z,97.80
2018-10-18T05:25:42.656Z,98.00
2018-10-18T05:28:11.193Z,98.40
2018-10-18T05:30:39.751Z,98.30
2018-10-18T05:33:08.334Z,98.30
2018-10-18T05:35:37.178Z,98.30
2018-10-18T05:38:05.868Z,97.90
2018-10-18T05:40:34.423Z,97.80
2018-10-18T05:43:03.141Z,97.70
2018-10-18T05:45:31.649Z,97.70
2018-10-18T05:48:00.228Z,97.70
2018-10-18T05:50:28.909Z,97.70
2018-10-18T05:52:57.410Z,97.70
2018-10-18T05:58:08.252Z,97.70
2018-10-18T06:00:37.446Z,97.80
2018-10-18T06:03:06.377Z,97.80
2018-10-18T06:05:35.065Z,97.70
2018-10-18T06:08:04.649Z,97.80
2018-10-18T06:10:44.432Z,97.80
2018-10-18T06:13:13.633Z,97.80
2018-10-18T06:15:42.392Z,97.80
2018-10-18T06:18:11.277Z,97.80
2018-10-18T06:20:39.899Z,97.80
2018-10-18T06:23:08.618Z,97.70
2018-10-18T06:25:37.185Z,97.70
2018-10-18T06:28:05.922Z,97.80
2018-10-18T06:30:34.506Z,97.80
2018-10-18T06:33:03.274Z,97.80
2018-10-18T06:35:31.871Z,97.50
2018-10-18T06:38:00.591Z,97.40
2018-10-18T06:40:29.283Z,97.20
2018-10-18T06:42:57.963Z,97.10
2018-10-18T06:45:26.518Z,97.00
2018-10-18T06:47:55.456Z,97.00
2018-10-18T06:50:24.020Z,96.90
2018-10-18T06:52:52.635Z,96.90
2018-10-18T06:55:21.428Z,96.70
2018-10-18T06:57:49.980Z,96.60
2018-10-18T07:00:21.645Z,96.60
2018-10-18T07:02:50.860Z,96.70
2018-10-18T07:05:19.600Z,96.70
2018-10-18T07:07:48.183Z,96.60
2018-10-18T07:10:16.965Z,96.60
2018-10-18T07:12:45.640Z,96.80
2018-10-18T07:15:15.699Z,96.80
2018-10-18T07:17:44.861Z,96.50
2018-10-18T07:20:14.402Z,96.20
2018-10-18T07:22:43.166Z,96.10
2018-10-18T07:25:13.321Z,95.80
2018-10-18T07:27:42.553Z,95.80
2018-10-18T07:30:13.132Z,95.70
2018-10-18T07:32:42.153Z,95.80
2018-10-18T07:35:12.157Z,95.80
2018-10-18T07:37:40.869Z,95.70
2018-10-18T07:40:12.261Z,95.50
2018-10-18T07:42:40.919Z,95.00
2018-10-18T07:45:10.468Z,94.60
2018-10-18T07:47:40.373Z,94.40
2018-10-18T07:50:09.328Z,94.10
2018-10-18T07:52:38.139Z,93.80
2018-10-18T07:55:08.091Z,94.00
2018-10-18T07:57:36.809Z,94.00
2018-10-18T08:00:08.159Z,93.70
2018-10-18T08:02:36.829Z,93.50
2018-10-18T08:05:08.086Z,93.30
2018-10-18T08:07:37.310Z,93.10
2018-10-18T08:10:08.743Z,93.10
2018-10-18T08:12:37.444Z,92.90
2018-10-18T08:15:07.597Z,92.90
2018-10-18T08:17:36.318Z,92.90
2018-10-18T08:20:05.070Z,92.60
2018-10-18T08:22:33.717Z,92.50
2018-10-18T08:25:02.416Z,92.20
2018-10-18T08:27:31.123Z,92.10
2018-10-18T08:29:59.712Z,91.60
2018-10-18T08:32:28.497Z,91.60
2018-10-18T08:34:57.342Z,91.40
2018-10-18T08:37:26.437Z,91.30
2018-10-18T08:39:55.669Z,90.90
2018-10-18T08:42:24.907Z,90.90
2018-10-18T08:44:53.926Z,90.90
2018-10-18T08:47:22.629Z,90.70
2018-10-18T08:49:51.372Z,90.90
2018-10-18T08:52:20.314Z,90.90
2018-10-18T08:54:48.930Z,90.70
2018-10-18T08:57:18.118Z,90.80
2018-10-18T08:59:47.231Z,91.00
2018-10-18T09:02:16.568Z,90.90
2018-10-18T09:04:46.013Z,91.00
2018-10-18T09:07:15.147Z,90.90
2018-10-18T09:09:44.009Z,91.00
2018-10-18T09:12:13.029Z,91.30
2018-10-18T09:14:42.078Z,91.10
2018-10-18T09:17:11.083Z,90.80
2018-10-18T09:19:40.352Z,90.80
2018-10-18T09:22:09.474Z,90.70
2018-10-18T09:24:38.481Z,90.40
2018-10-18T09:27:07.647Z,90.40
2018-10-18T09:29:36.603Z,90.20
2018-10-18T09:32:05.824Z,90.10
2018-10-18T09:34:34.625Z,90.10
2018-10-18T09:37:03.449Z,89.50
2018-10-18T09:39:32.029Z,88.60
2018-10-18T09:42:01.718Z,88.70
2018-10-18T09:44:30.494Z,88.60
2018-10-18T09:46:59.183Z,87.80
2018-10-18T09:49:27.840Z,87.50
2018-10-18T09:51:56.426Z,86.70
2018-10-18T09:54:24.986Z,86.90
2018-10-18T09:56:53.530Z,86.80
2018-10-18T09:59:22.077Z,86.30
2018-10-18T10:01:56.647Z,86.40
2018-10-18T10:04:25.538Z,85.50
2018-10-18T10:06:54.137Z,85.20
2018-10-18T10:09:23.321Z,84.70
2018-10-18T10:11:52.125Z,84.80
2018-10-18T10:14:20.725Z,84.80
2018-10-18T10:16:49.406Z,84.00
2018-10-18T10:19:18.092Z,83.90
2018-10-18T10:21:46.625Z,83.60
2018-10-18T10:24:15.205Z,82.80
2018-10-18T10:26:43.887Z,81.40
2018-10-18T10:29:12.474Z,78.60
2018-10-18T10:31:41.132Z,77.20
2018-10-18T10:34:09.743Z,76.00
2018-10-18T10:36:38.370Z,75.30
2018-10-18T10:39:09.011Z,76.90
2018-10-18T10:41:37.668Z,76.60
2018-10-18T10:44:08.403Z,77.70
2018-10-18T10:46:38.944Z,78.40
2018-10-18T10:49:08.630Z,78.60
2018-10-18T10:51:37.996Z,78.60
2018-10-18T10:54:07.928Z,78.70
2018-10-18T10:56:36.525Z,79.00
2018-10-18T10:59:11.718Z,79.50
2018-10-18T11:01:40.433Z,78.80
2018-10-18T11:04:09.078Z,78.40
2018-10-18T11:06:37.583Z,78.80
2018-10-18T11:09:08.302Z,78.50
2018-10-18T11:11:36.985Z,78.40
2018-10-18T11:14:05.844Z,78.30
2018-10-18T11:16:34.495Z,78.80
2018-10-18T11:19:03.194Z,78.70
2018-10-18T11:21:31.699Z,78.60
2018-10-18T11:24:00.450Z,78.70
2018-10-18T11:26:28.956Z,78.20
2018-10-18T11:28:57.526Z,77.70
2018-10-18T11:31:26.173Z,78.10
2018-10-18T11:33:55.022Z,77.60
2018-10-18T11:36:23.734Z,77.60
2018-10-18T11:38:52.309Z,77.70
2018-10-18T11:41:20.982Z,78.00
2018-10-18T11:43:50.038Z,77.90
2018-10-18T11:46:19.102Z,78.00
2018-10-18T11:48:48.202Z,76.60
2018-10-18T11:51:17.278Z,76.70
2018-10-18T11:53:46.133Z,76.70
2018-10-18T11:56:15.307Z,75.80
2018-10-18T11:58:44.343Z,76.00
2018-10-18T12:01:13.453Z,75.60
2018-10-18T12:03:42.371Z,76.70
2018-10-18T12:06:11.503Z,76.70
2018-10-18T12:08:40.602Z,76.70
2018-10-18T12:11:09.714Z,76.60
2018-10-18T12:13:38.664Z,77.40
2018-10-18T12:16:07.379Z,77.10
2018-10-18T12:18:36.168Z,76.60
2018-10-18T12:21:05.164Z,76.60
2018-10-18T12:23:34.187Z,77.40
2018-10-18T12:26:03.311Z,77.90
2018-10-18T12:28:31.842Z,77.30
2018-10-18T12:31:00.477Z,77.30
2018-10-18T12:33:29.155Z,77.70
2018-10-18T12:35:58.122Z,77.20
2018-10-18T12:38:26.785Z,77.50
2018-10-18T12:40:55.366Z,77.90
2018-10-18T12:43:23.982Z,78.90
2018-10-18T12:45:52.627Z,78.30
2018-10-18T12:48:21.933Z,78.20
2018-10-18T12:50:50.546Z,77.90
2018-10-18T12:53:19.211Z,77.20
2018-10-18T12:55:47.871Z,76.50
2018-10-18T12:58:16.542Z,76.60
2018-10-18T13:00:45.313Z,76.60
2018-10-18T13:03:14.147Z,76.60
2018-10-18T13:05:42.805Z,76.80
2018-10-18T13:08:11.535Z,76.80
2018-10-18T13:10:40.683Z,76.50
2018-10-18T13:13:09.335Z,76.50
2018-10-18T13:15:38.015Z,76.50
2018-10-18T13:18:07.175Z,77.00
2018-10-18T13:20:35.846Z,77.60
2018-10-18T13:23:05.821Z,77.80
2018-10-18T13:25:34.471Z,77.30
2018-10-18T13:28:03.193Z,76.80
2018-10-18T13:30:32.029Z,77.00
2018-10-18T13:33:00.744Z,77.00
2018-10-18T13:35:29.489Z,77.30
2018-10-18T13:37:58.436Z,77.40
2018-10-18T13:40:27.353Z,77.60
2018-10-18T13:42:56.008Z,77.90
2018-10-18T13:45:24.718Z,77.60
2018-10-18T13:47:53.446Z,77.50
2018-10-18T13:50:22.132Z,77.20
2018-10-18T13:52:51.416Z,76.60
2018-10-18T13:55:20.136Z,76.00
2018-10-18T13:57:48.755Z,75.80
2018-10-18T14:00:21.237Z,75.90
2018-10-18T14:02:50.696Z,75.80
2018-10-18T14:05:19.632Z,75.80
2018-10-18T14:07:49.225Z,75.90
2018-10-18T14:10:17.741Z,74.40
2018-10-18T14:12:46.416Z,74.10
2018-10-18T14:15:15.082Z,74.50
2018-10-18T14:17:43.735Z,75.50
2018-10-18T14:20:12.682Z,75.60
2018-10-18T14:22:41.514Z,75.70
2018-10-18T14:25:10.481Z,75.20
2018-10-18T14:27:39.597Z,75.60
2018-10-18T14:30:10.340Z,75.60
2018-10-18T14:32:38.991Z,75.70
2018-10-18T14:35:09.191Z,75.70
2018-10-18T14:37:37.686Z,75.70
2018-10-18T14:40:07.502Z,75.80
2018-10-18T14:42:36.329Z,75.70
2018-10-18T14:45:06.493Z,75.70
2018-10-18T14:47:35.128Z,75.60
2018-10-18T14:50:04.217Z,76.30
2018-10-18T14:52:32.789Z,76.40
2018-10-18T14:55:01.442Z,75.70
2018-10-18T14:57:30.124Z,76.10
2018-10-18T14:59:58.803Z,76.40
2018-10-18T15:02:27.361Z,76.30
2018-10-18T15:04:56.677Z,76.00
2018-10-18T15:07:25.273Z,76.30
2018-10-18T15:09:53.999Z,76.60
2018-10-18T15:12:22.695Z,76.90
2018-10-18T15:14:51.413Z,76.40
2018-10-18T15:17:20.197Z,76.50
2018-10-18T15:19:49.064Z,76.90
2018-10-18T15:22:18.302Z,77.00
2018-10-18T15:24:46.926Z,77.00
2018-10-18T15:27:16.187Z,76.80
2018-10-18T15:29:44.846Z,76.80
2018-10-18T15:32:13.557Z,76.90
2018-10-18T15:34:42.270Z,77.30
2018-10-18T15:37:10.887Z,77.60
2018-10-18T15:39:39.516Z,77.60
2018-10-18T15:42:08.335Z,78.10
2018-10-18T15:44:36.991Z,78.40
2018-10-18T15:47:06.072Z,78.30
2018-10-18T15:49:34.723Z,78.20
2018-10-18T15:52:03.402Z,78.40
2018-10-18T15:54:32.132Z,78.60
2018-10-18T15:57:02.499Z,78.80
2018-10-18T15:59:31.179Z,78.80
2018-10-18T16:01:59.816Z,78.80
2018-10-18T16:04:29.269Z,79.40
2018-10-18T16:06:57.926Z,79.50
2018-10-18T16:09:26.566Z,79.40
2018-10-18T16:11:55.260Z,79.70
2018-10-18T16:14:24.000Z,79.90
2018-10-18T16:16:52.767Z,80.30
2018-10-18T16:19:21.410Z,80.40
2018-10-18T16:21:50.178Z,80.70
2018-10-18T16:24:18.710Z,80.60
2018-10-18T16:26:48.165Z,81.00
2018-10-18T16:29:17.635Z,81.80
2018-10-18T16:31:47.056Z,81.60
2018-10-18T16:34:16.137Z,81.50
2018-10-18T16:36:44.842Z,81.70
2018-10-18T16:39:14.278Z,81.70
2018-10-18T16:41:43.212Z,82.00
2018-10-18T16:44:11.950Z,82.10
2018-10-18T16:46:40.597Z,82.50
2018-10-18T16:49:10.698Z,83.10
2018-10-18T16:51:39.641Z,83.30
2018-10-18T16:54:09.167Z,83.70
2018-10-18T16:56:38.218Z,83.60
2018-10-18T16:59:07.007Z,84.00
2018-10-18T17:01:36.349Z,85.20
2018-10-18T17:04:05.789Z,84.60
2018-10-18T17:06:35.017Z,84.70
2018-10-18T17:09:04.129Z,84.90
2018-10-18T17:11:32.869Z,85.20
2018-10-18T17:14:01.540Z,85.70
2018-10-18T17:16:33.052Z,86.40
2018-10-18T17:19:02.462Z,85.90
2018-10-18T17:21:31.860Z,85.60
2018-10-18T17:24:01.178Z,85.90
2018-10-18T17:26:30.090Z,86.50
2018-10-18T17:28:59.499Z,87.20
2018-10-18T17:31:35.959Z,87.30
2018-10-18T17:34:05.076Z,87.70
2018-10-18T17:36:34.979Z,88.20
2018-10-18T17:39:06.608Z,88.40
2018-10-18T17:41:35.645Z,89.00
2018-10-18T17:44:05.905Z,89.20
2018-10-18T17:46:34.475Z,88.70
2018-10-18T17:49:05.090Z,89.10
2018-10-18T17:51:34.728Z,89.80
2018-10-18T17:54:03.618Z,90.10
2018-10-18T17:56:34.318Z,90.30
2018-10-18T17:59:04.004Z,90.50
2018-10-18T18:01:32.864Z,90.70
2018-10-18T18:04:04.085Z,90.40
2018-10-18T18:06:32.784Z,90.60
2018-10-18T18:11:30.713Z,90.80
2018-10-18T18:14:00.390Z,90.60
2018-10-18T18:16:30.110Z,90.80
2018-10-18T18:18:58.665Z,90.50
2018-10-18T18:21:27.803Z,90.80
2018-10-18T18:23:57.017Z,90.50
2018-10-18T18:26:32.602Z,90.50
2018-10-18T18:28:54.135Z,90.50
2018-10-18T18:31:22.822Z,91.10
2018-10-18T18:33:51.309Z,90.50
2018-10-18T18:36:20.155Z,90.50
2018-10-18T18:38:48.786Z,90.50
2018-10-18T18:41:17.274Z,90.50
2018-10-18T18:43:46.709Z,90.00
2018-10-18T18:46:15.403Z,89.80
2018-10-18T18:48:43.946Z,89.60
2018-10-18T18:51:12.515Z,89.30
2018-10-18T18:53:41.034Z,89.00
2018-10-18T18:56:09.681Z,89.40
2018-10-18T18:58:38.276Z,89.30
2018-10-18T19:01:06.949Z,89.20
2018-10-18T19:03:36.085Z,89.50
2018-10-18T19:06:05.517Z,89.90
2018-10-18T19:08:34.230Z,90.20
2018-10-18T19:11:02.855Z,90.50
2018-10-18T19:13:31.714Z,90.40
2018-10-18T19:16:00.400Z,90.30
2018-10-18T19:18:28.990Z,90.50
2018-10-18T19:20:57.645Z,90.70
2018-10-18T19:23:26.266Z,90.70
2018-10-18T19:25:55.907Z,90.60
2018-10-18T19:28:24.471Z,90.70
2018-10-18T19:30:53.327Z,90.60
2018-10-18T19:33:21.998Z,90.30
2018-10-18T19:35:50.717Z,90.30
2018-10-18T19:38:19.933Z,90.30
2018-10-18T19:40:48.437Z,90.50
2018-10-18T19:43:17.042Z,90.60
2018-10-18T19:45:45.921Z,90.80
2018-10-18T19:48:14.316Z,90.80
2018-10-18T19:50:43.137Z,90.90
2018-10-18T19:53:11.687Z,90.70
2018-10-18T19:55:40.257Z,90.70
2018-10-18T19:58:08.849Z,90.80
2018-10-18T20:00:37.522Z,90.90
2018-10-18T20:03:07.004Z,91.10
2018-10-18T20:05:35.525Z,91.40
2018-10-18T20:08:04.962Z,91.40
2018-10-18T20:10:33.888Z,91.80
2018-10-18T20:13:03.074Z,92.00
2018-10-18T20:15:31.838Z,92.30
2018-10-18T20:18:00.504Z,92.20
2018-10-18T20:20:29.014Z,92.20
2018-10-18T20:22:57.730Z,92.00
2018-10-18T20:25:26.809Z,92.20
2018-10-18T20:27:55.433Z,92.00
2018-10-18T20:30:23.964Z,92.00
2018-10-18T20:32:52.506Z,91.90
2018-10-18T20:35:21.102Z,91.80
2018-10-18T20:37:49.721Z,91.90
2018-10-18T20:40:18.392Z,91.90
2018-10-18T20:42:46.895Z,91.80
2018-10-18T20:45:21.157Z,91.80
2018-10-18T20:47:49.830Z,91.80
2018-10-18T20:50:18.547Z,91.90
2018-10-18T20:52:47.116Z,92.00
2018-10-18T20:55:15.669Z,92.30
2018-10-18T20:57:44.987Z,92.50
2018-10-18T21:00:14.940Z,92.30
2018-10-18T21:02:43.467Z,92.20
2018-10-18T21:05:11.990Z,92.70
2018-10-18T21:07:40.533Z,92.50
2018-10-18T21:10:09.459Z,92.20
2018-10-18T21:12:38.141Z,92.40
2018-10-18T21:15:07.141Z,92.40
2018-10-18T21:17:35.770Z,92.20
2018-10-18T21:20:04.525Z,92.00
2018-10-18T21:22:33.116Z,91.70
2018-10-18T21:25:01.686Z,91.60
2018-10-18T21:27:30.262Z,91.60
2018-10-18T21:29:58.786Z,91.80
2018-10-18T21:32:27.350Z,91.90
2018-10-18T21:34:56.593Z,91.70
2018-10-18T21:37:25.197Z,91.40
2018-10-18T21:39:53.761Z,91.40
2018-10-18T21:42:22.903Z,91.90
2018-10-18T21:44:52.318Z,92.00
2018-10-18T21:47:22.119Z,91.90
2018-10-18T21:49:50.624Z,91.70
2018-10-18T21:52:20.051Z,91.80
2018-10-18T21:54:48.942Z,92.20
2018-10-18T21:57:17.507Z,91.90
2018-10-18T21:59:46.085Z,91.60
2018-10-18T22:02:14.624Z,91.50
2018-10-18T22:04:43.222Z,91.40
2018-10-18T22:07:11.817Z,91.80
2018-10-18T22:09:40.376Z,91.40
2018-10-18T22:12:08.941Z,90.80
2018-10-18T22:14:37.347Z,90.60
2018-10-18T22:17:07.091Z,90.40
2018-10-18T22:19:35.522Z,90.40
2018-10-18T22:22:04.112Z,90.70
2018-10-18T22:24:39.262Z,90.50
2018-10-18T22:27:07.950Z,90.60
2018-10-18T22:29:36.435Z,90.50
2018-10-18T22:32:05.374Z,90.20
2018-10-18T22:34:33.876Z,90.10
2018-10-18T22:37:02.419Z,90.40
2018-10-18T22:39:30.969Z,90.70
2018-10-18T22:42:01.135Z,90.40
2018-10-18T22:44:29.688Z,90.40
2018-10-18T22:46:58.199Z,90.20
2018-10-18T22:49:26.657Z,89.90
2018-10-18T22:51:55.253Z,90.30
2018-10-18T22:54:23.775Z,90.40
2018-10-18T22:56:52.214Z,90.00
2018-10-18T22:59:21.769Z,89.30
2018-10-18T23:01:51.201Z,89.40
2018-10-18T23:04:19.710Z,88.10
2018-10-18T23:06:48.755Z,87.30
2018-10-18T23:09:17.882Z,86.80
2018-10-18T23:11:47.460Z,86.70
2018-10-18T23:14:15.941Z,86.50
2018-10-18T23:16:44.424Z,86.20
2018-10-18T23:19:12.931Z,86.30
2018-10-18T23:21:41.393Z,86.20
2018-10-18T23:24:09.909Z,86.20
2018-10-18T23:26:38.477Z,86.80
2018-10-18T23:29:07.079Z,86.70
2018-10-18T23:31:35.608Z,86.50
2018-10-18T23:34:04.189Z,86.70
2018-10-18T23:36:32.726Z,86.90
2018-10-18T23:39:01.264Z,87.60
2018-10-18T23:41:29.959Z,87.60
2018-10-18T23:43:58.469Z,87.20
2018-10-18T23:46:27.622Z,87.10
2018-10-18T23:48:56.157Z,87.10
2018-10-18T23:51:25.245Z,87.50
2018-10-18T23:53:53.681Z,87.60
2018-10-18T23:56:22.165Z,87.40
2018-10-18T23:58:50.694Z,88.30
